Time;durP1;ratioP1;P1;durP2;ratioP2;P2;SDS_P1;SDS_P2;PMS_P1;PMS_P2;Temp;Humidity;BMP_temperature;BMP_pressure;BME280_temperature;BME280_humidity;BME280_pressure;Samples;Min_cycle;Max_cycle;Signal;HPM_P1;HPM_P2
2023/10/25 00:00:37;;;;;;;2.93;2.73;;;;;;;14.64;67.05;96426.50;5033366;28;20607;-68
2023/10/25 00:03:02;;;;;;;3.20;2.97;;;;;;;14.61;67.01;96433.00;5035787;28;20419;-69
2023/10/25 00:05:32;;;;;;;3.40;3.10;;;;;;;14.58;67.04;96425.47;5034191;28;20679;-69
2023/10/25 00:07:58;;;;;;;3.00;2.80;;;;;;;14.55;67.03;96416.16;5042515;28;20201;-70
2023/10/25 00:10:23;;;;;;;7.47;2.87;;;;;;;14.54;66.78;96417.16;5034728;28;20410;-68
2023/10/25 00:12:49;;;;;;;6.67;3.10;;;;;;;14.53;66.91;96412.09;5030005;28;20188;-68
2023/10/25 00:15:14;;;;;;;3.20;3.00;;;;;;;14.52;66.87;96408.63;5034530;28;20766;-68
2023/10/25 00:17:40;;;;;;;3.13;2.83;;;;;;;14.48;66.88;96404.78;5030045;28;20590;-68
2023/10/25 00:20:06;;;;;;;3.83;3.07;;;;;;;14.51;66.75;96393.00;5038395;28;20727;-67
2023/10/25 00:22:32;;;;;;;3.37;3.07;;;;;;;14.47;66.40;96392.59;5038817;28;20180;-69
2023/10/25 00:24:57;;;;;;;3.20;2.83;;;;;;;14.44;66.48;96382.44;5042473;28;20487;-68
2023/10/25 00:27:23;;;;;;;2.87;2.67;;;;;;;14.40;66.45;96386.47;5029542;28;20629;-69
2023/10/25 00:29:48;;;;;;;5.20;2.90;;;;;;;14.41;66.35;96402.09;5036212;28;20698;-68
2023/10/25 00:32:16;;;;;;;3.17;2.87;;;;;;;14.40;66.44;96397.00;5030752;28;20223;-69
2023/10/25 00:34:42;;;;;;;6.97;3.30;;;;;;;14.34;66.56;96405.72;5034975;28;20199;-69
2023/10/25 00:37:07;;;;;;;9.63;2.70;;;;;;;14.26;66.65;96396.16;5039971;28;20452;-68
2023/10/25 00:39:33;;;;;;;5.67;2.50;;;;;;;14.23;66.76;96397.38;5029312;28;20180;-69
2023/10/25 00:41:58;;;;;;;3.57;2.60;;;;;;;14.24;66.62;96398.16;5040080;28;20331;-68
2023/10/25 00:44:24;;;;;;;5.63;2.90;;;;;;;14.20;66.86;96391.66;5029022;28;20227;-68
2023/10/25 00:46:50;;;;;;;4.83;2.80;;;;;;;14.17;67.01;96387.59;5029608;28;20192;-69
2023/10/25 00:49:16;;;;;;;4.73;3.20;;;;;;;14.19;67.36;96398.75;5031785;28;20427;-68
2023/10/25 00:51:41;;;;;;;4.53;3.00;;;;;;;14.25;67.07;96395.31;5020274;28;20219;-68
2023/10/25 00:54:07;;;;;;;3.00;2.80;;;;;;;14.27;66.98;96395.16;5036123;28;20481;-68
2023/10/25 00:56:36;;;;;;;3.30;3.00;;;;;;;14.24;66.91;96391.06;5039545;28;20204;-69
2023/10/25 00:59:02;;;;;;;4.10;2.73;;;;;;;14.26;66.80;96398.78;5028250;28;20184;-68
2023/10/25 01:01:28;;;;;;;3.23;2.80;;;;;;;14.32;66.83;96394.56;5030593;28;20429;-68
2023/10/25 01:03:54;;;;;;;4.07;2.67;;;;;;;14.35;67.04;96396.81;5028913;28;20231;-69
2023/10/25 01:06:20;;;;;;;3.27;2.97;;;;;;;14.36;66.94;96398.44;5023852;28;20471;-69
2023/10/25 01:08:45;;;;;;;3.27;3.07;;;;;;;14.39;66.94;96395.38;5029339;28;20516;-69
2023/10/25 01:11:11;;;;;;;2.90;2.70;;;;;;;14.39;66.86;96395.38;5041780;28;20172;-69
2023/10/25 01:13:37;;;;;;;3.70;3.10;;;;;;;14.35;66.83;96399.44;5040736;28;20191;-70
2023/10/25 01:16:02;;;;;;;3.23;2.97;;;;;;;14.34;66.84;96397.81;5031685;28;20358;-67
2023/10/25 01:18:28;;;;;;;5.30;2.90;;;;;;;14.29;67.04;96401.84;5028609;28;20192;-69
2023/10/25 01:20:53;;;;;;;4.27;3.10;;;;;;;14.29;67.02;96406.31;5036679;28;20349;-67
2023/10/25 01:23:19;;;;;;;4.53;3.30;;;;;;;14.22;67.04;96401.00;5024063;28;20185;-68
2023/10/25 01:25:44;;;;;;;11.43;3.50;;;;;;;14.24;67.18;96398.97;5033982;28;20210;-68
2023/10/25 01:28:10;;;;;;;3.67;3.33;;;;;;;14.26;67.28;96406.69;5029747;28;20184;-68
2023/10/25 01:30:36;;;;;;;3.30;3.07;;;;;;;14.23;67.18;96402.63;5027985;28;20202;-67
2023/10/25 01:33:02;;;;;;;2.90;2.70;;;;;;;14.21;67.43;96388.00;5028721;28;20422;-68
2023/10/25 01:35:28;;;;;;;3.07;2.80;;;;;;;14.24;67.34;96390.25;5027285;28;20361;-68
2023/10/25 01:37:54;;;;;;;3.23;2.93;;;;;;;14.21;67.06;96383.56;5034702;28;20421;-68
2023/10/25 01:40:19;;;;;;;3.07;2.83;;;;;;;14.21;66.78;96388.84;5039956;28;20205;-68
2023/10/25 01:42:45;;;;;;;7.83;3.17;;;;;;;14.20;66.90;96400.38;5038677;28;20214;-68
2023/10/25 01:45:11;;;;;;;4.17;2.90;;;;;;;14.19;66.69;96398.75;5042675;28;20731;-68
2023/10/25 01:47:40;;;;;;;6.87;2.93;;;;;;;14.15;66.85;96400.13;5022652;28;20180;-70
2023/10/25 01:50:06;;;;;;;3.60;2.80;;;;;;;14.11;66.61;96401.56;5034962;28;20433;-69
2023/10/25 01:52:32;;;;;;;6.03;3.27;;;;;;;14.08;66.53;96399.31;5028938;28;20482;-69
2023/10/25 01:54:57;;;;;;;3.67;3.27;;;;;;;14.09;66.43;96390.41;5042085;28;20808;-69
2023/10/25 01:57:23;;;;;;;3.17;2.97;;;;;;;14.02;66.39;96387.72;5040356;28;20183;-69
2023/10/25 01:59:49;;;;;;;4.90;3.00;;;;;;;13.99;66.20;96385.47;5033484;28;20724;-69
2023/10/25 02:02:14;;;;;;;4.40;2.90;;;;;;;13.99;66.18;96388.09;5020240;28;20184;-69
2023/10/25 02:04:40;;;;;;;3.60;2.80;;;;;;;14.02;66.11;96390.34;5030749;28;20199;-70
2023/10/25 02:07:05;;;;;;;3.10;2.77;;;;;;;13.94;66.22;96404.50;5028598;28;20187;-70
2023/10/25 02:09:31;;;;;;;3.10;2.90;;;;;;;13.92;66.22;96390.69;5039956;28;20306;-69
2023/10/25 02:11:56;;;;;;;3.23;2.93;;;;;;;13.92;66.19;96392.53;5027005;28;20191;-70
2023/10/25 02:14:22;;;;;;;3.40;3.10;;;;;;;13.90;65.96;96387.44;5027363;28;20290;-70
2023/10/25 02:16:48;;;;;;;4.70;2.73;;;;;;;13.82;66.20;96385.75;5029816;28;20711;-68
2023/10/25 02:19:14;;;;;;;7.53;3.30;;;;;;;13.82;66.45;96387.59;5032272;28;20680;-68
2023/10/25 02:21:39;;;;;;;3.10;2.80;;;;;;;13.87;66.29;96377.28;5030401;28;20175;-69
2023/10/25 02:24:05;;;;;;;3.80;3.07;;;;;;;13.82;66.07;96369.97;5027814;28;20446;-69
2023/10/25 02:26:31;;;;;;;3.60;3.30;;;;;;;13.79;66.07;96373.00;5039303;28;20266;-68
2023/10/25 02:28:56;;;;;;;4.63;3.20;;;;;;;13.80;65.96;96376.44;5033560;28;20214;-69
2023/10/25 02:31:22;;;;;;;5.63;3.17;;;;;;;13.77;66.25;96368.91;5036734;28;20183;-69
2023/10/25 02:33:47;;;;;;;3.10;2.90;;;;;;;13.81;66.35;96370.16;5034710;28;20608;-69
2023/10/25 02:36:13;;;;;;;3.03;2.83;;;;;;;13.79;66.38;96369.53;5027875;28;20211;-70
2023/10/25 02:38:38;;;;;;;7.53;3.87;;;;;;;13.81;65.95;96354.38;5027887;28;20180;-69
2023/10/25 02:41:04;;;;;;;7.60;3.70;;;;;;;13.79;66.01;96353.75;5028917;28;20179;-69
2023/10/25 02:43:29;;;;;;;3.17;2.97;;;;;;;13.79;65.80;96359.00;5037742;28;20184;-68
2023/10/25 02:46:07;;;;;;;3.47;3.13;;;;;;;13.76;65.47;96348.84;5034216;28;20218;-69
2023/10/25 02:48:32;;;;;;;8.07;3.00;;;;;;;13.74;65.55;96342.97;5026659;28;20184;-68
2023/10/25 02:51:01;;;;;;;3.93;2.63;;;;;;;13.67;65.37;96335.84;5034727;28;20422;-69
2023/10/25 02:53:27;;;;;;;3.20;3.00;;;;;;;13.59;65.78;96343.91;5036079;28;20180;-68
2023/10/25 02:56:03;;;;;;;3.27;3.07;;;;;;;13.60;65.88;96339.44;5036202;28;21096;-68
2023/10/25 02:58:29;;;;;;;3.30;3.00;;;;;;;13.57;66.09;96335.38;5029008;28;20179;-67
2023/10/25 03:00:56;;;;;;;2.90;2.70;;;;;;;13.60;66.23;96345.53;5033943;28;20441;-68
2023/10/25 03:03:22;;;;;;;5.90;3.70;;;;;;;13.60;66.19;96337.63;5028350;28;20187;-68
2023/10/25 03:05:47;;;;;;;3.77;3.33;;;;;;;13.57;65.88;96327.50;5039891;28;20433;-68
2023/10/25 03:08:12;;;;;;;3.23;2.93;;;;;;;13.59;65.89;96328.13;5033051;28;20433;-69
2023/10/25 03:10:38;;;;;;;3.63;3.20;;;;;;;13.57;65.64;96327.50;5041250;28;20176;-69
2023/10/25 03:13:04;;;;;;;3.70;3.40;;;;;;;13.57;65.88;96324.84;5036774;28;20262;-69
2023/10/25 03:15:29;;;;;;;3.90;3.60;;;;;;;13.56;65.45;96332.94;5034099;28;20246;-69
2023/10/25 03:17:55;;;;;;;3.50;3.20;;;;;;;13.53;65.58;96318.34;5037660;28;20192;-68
2023/10/25 03:20:20;;;;;;;5.90;3.20;;;;;;;13.49;65.70;96312.66;5031128;28;20182;-68
2023/10/25 03:22:46;;;;;;;3.57;3.00;;;;;;;13.49;65.82;96322.34;5035814;28;20708;-68
2023/10/25 03:25:11;;;;;;;9.07;2.73;;;;;;;13.51;65.91;96310.66;5042118;28;20204;-69
2023/10/25 03:27:37;;;;;;;3.80;3.10;;;;;;;13.51;65.66;96315.09;5041837;28;20206;-68
2023/10/25 03:30:03;;;;;;;3.33;3.03;;;;;;;13.49;65.80;96311.81;5043847;28;20313;-68
2023/10/25 03:32:29;;;;;;;6.70;3.43;;;;;;;13.55;65.47;96308.44;5040903;28;20244;-69
2023/10/25 03:34:54;;;;;;;4.53;3.10;;;;;;;13.57;65.42;96301.16;5036609;28;20462;-69
2023/10/25 03:37:20;;;;;;;3.33;3.13;;;;;;;13.56;65.41;96304.81;5041510;28;20194;-70
2023/10/25 03:39:45;;;;;;;3.80;3.50;;;;;;;13.52;65.39;96308.81;5038574;28;20188;-68
2023/10/25 03:42:11;;;;;;;6.10;3.80;;;;;;;13.51;65.78;96301.91;5033434;28;20551;-68
2023/10/25 03:44:36;;;;;;;4.57;4.17;;;;;;;13.47;66.17;96308.59;5026769;28;20231;-69
2023/10/25 03:47:03;;;;;;;3.57;3.27;;;;;;;13.45;66.60;96306.13;5029816;28;20279;-68
2023/10/25 03:49:29;;;;;;;4.90;3.67;;;;;;;13.38;66.84;96300.00;5018797;28;20188;-68
2023/10/25 03:51:54;;;;;;;4.10;3.80;;;;;;;13.33;66.93;96308.47;5030012;28;20430;-68
2023/10/25 03:54:19;;;;;;;4.00;3.70;;;;;;;13.35;66.99;96313.53;5030521;28;20241;-68
2023/10/25 03:56:45;;;;;;;4.07;3.67;;;;;;;13.35;67.20;96306.47;5029400;28;20253;-68
2023/10/25 03:59:11;;;;;;;3.83;3.50;;;;;;;13.35;67.21;96298.56;5024864;28;20278;-69
2023/10/25 04:01:37;;;;;;;4.30;3.90;;;;;;;13.32;67.07;96301.59;5033367;28;20529;-68
2023/10/25 04:04:03;;;;;;;4.50;3.50;;;;;;;13.29;67.03;96301.97;5028847;28;20468;-68
2023/10/25 04:06:28;;;;;;;3.67;3.33;;;;;;;13.27;67.48;96298.69;5036878;28;20497;-68
2023/10/25 04:08:54;;;;;;;3.80;3.30;;;;;;;13.33;67.30;96289.22;5037473;28;20188;-68
2023/10/25 04:11:19;;;;;;;3.67;3.37;;;;;;;13.29;67.12;96295.91;5037210;28;20213;-68
2023/10/25 04:13:45;;;;;;;3.27;3.07;;;;;;;13.28;66.96;96295.06;5042041;28;20332;-68
2023/10/25 04:16:10;;;;;;;3.70;3.20;;;;;;;13.25;66.94;96295.44;5037411;28;20239;-67
2023/10/25 04:18:36;;;;;;;3.20;2.90;;;;;;;13.21;67.13;96283.69;5037796;28;20214;-69
2023/10/25 04:21:03;;;;;;;3.90;3.30;;;;;;;13.20;67.14;96285.50;5037087;28;20180;-68
2023/10/25 04:23:30;;;;;;;3.83;3.33;;;;;;;13.20;67.20;96282.06;5034964;28;20427;-69
2023/10/25 04:26:13;;;;;;;3.77;3.47;;;;;;;13.25;67.02;96284.13;5039702;28;20486;-69
2023/10/25 04:28:42;;;;;;;3.20;3.00;;;;;;;13.22;66.54;96282.69;5043990;28;20429;-69
2023/10/25 04:31:08;;;;;;;3.50;3.20;;;;;;;13.19;66.50;96275.19;5030962;28;20496;-69
2023/10/25 04:33:36;;;;;;;3.50;3.20;;;;;;;13.14;66.25;96270.50;5036706;28;20791;-69
2023/10/25 04:36:02;;;;;;;4.03;3.73;;;;;;;13.12;66.17;96264.59;5039715;28;20807;-69
2023/10/25 04:38:28;;;;;;;4.50;4.10;;;;;;;13.10;66.25;96265.81;5028382;28;20425;-69
2023/10/25 04:40:53;;;;;;;5.80;3.80;;;;;;;13.09;66.08;96267.59;5045165;28;20601;-69
2023/10/25 04:43:19;;;;;;;4.93;2.97;;;;;;;12.99;66.24;96265.31;5038652;28;20180;-69
2023/10/25 04:45:45;;;;;;;5.90;2.67;;;;;;;12.96;66.02;96255.19;5041407;28;20203;-68
2023/10/25 04:48:10;;;;;;;3.80;2.83;;;;;;;12.96;66.27;96252.56;5036937;28;20175;-69
2023/10/25 04:50:37;;;;;;;3.07;2.87;;;;;;;13.01;66.04;96247.50;5034412;28;20724;-69
2023/10/25 04:53:03;;;;;;;2.63;2.43;;;;;;;13.00;66.21;96231.94;5030822;28;20268;-68
2023/10/25 04:55:36;;;;;;;3.60;2.77;;;;;;;13.00;65.93;96235.38;5036518;28;20520;-68
2023/10/25 04:58:02;;;;;;;8.53;2.50;;;;;;;12.95;65.57;96248.28;5022125;28;20504;-68
2023/10/25 05:00:28;;;;;;;3.67;2.80;;;;;;;12.89;66.15;96236.72;5032415;28;21670;-68
2023/10/25 05:02:54;;;;;;;2.83;2.63;;;;;;;12.80;65.60;96234.41;5035404;28;20465;-68
2023/10/25 05:05:20;;;;;;;3.57;3.10;;;;;;;12.80;65.80;96229.16;5046933;28;20284;-68
2023/10/25 05:07:46;;;;;;;3.13;2.93;;;;;;;12.75;65.97;96227.09;5030588;28;20438;-68
2023/10/25 05:10:12;;;;;;;3.43;2.53;;;;;;;12.68;66.23;96223.59;5034160;28;20183;-68
2023/10/25 05:12:47;;;;;;;3.10;2.90;;;;;;;12.70;66.03;96219.78;5040311;28;20430;-68
2023/10/25 05:15:14;;;;;;;5.37;3.40;;;;;;;12.55;66.64;96222.47;5029111;28;20544;-68
2023/10/25 05:17:40;;;;;;;3.40;3.10;;;;;;;12.60;66.24;96216.69;5052640;28;20426;-68
2023/10/25 05:20:07;;;;;;;4.03;3.20;;;;;;;12.56;66.44;96213.59;5038487;28;20414;-68
2023/10/25 05:22:37;;;;;;;3.03;2.83;;;;;;;12.54;66.54;96215.59;5030837;28;20432;-67
2023/10/25 05:25:04;;;;;;;3.60;3.30;;;;;;;12.61;66.36;96220.91;5039545;28;20438;-69
2023/10/25 05:27:30;;;;;;;3.10;2.90;;;;;;;12.64;66.66;96210.00;5032221;28;20425;-69
2023/10/25 05:29:59;;;;;;;4.00;2.80;;;;;;;12.67;66.15;96208.81;5030227;28;20425;-68
2023/10/25 05:32:25;;;;;;;3.03;2.70;;;;;;;12.64;66.27;96204.75;5039787;28;20191;-69
2023/10/25 05:34:51;;;;;;;3.10;2.67;;;;;;;12.66;66.27;96202.75;5029489;28;20461;-69
2023/10/25 05:37:17;;;;;;;2.90;2.70;;;;;;;12.64;66.34;96194.25;5033830;28;20418;-69
2023/10/25 05:39:43;;;;;;;4.63;3.03;;;;;;;12.69;66.12;96191.03;5026994;28;20199;-68
2023/10/25 05:42:12;;;;;;;4.63;2.80;;;;;;;12.64;66.12;96194.25;5026972;28;20209;-69
2023/10/25 05:44:38;;;;;;;4.07;2.87;;;;;;;12.68;65.77;96182.34;5034024;28;20824;-69
2023/10/25 05:47:03;;;;;;;7.90;3.00;;;;;;;12.72;65.80;96180.97;5035429;28;20418;-68
2023/10/25 05:49:29;;;;;;;4.43;3.10;;;;;;;12.70;65.49;96193.50;5023678;28;20210;-69
2023/10/25 05:51:55;;;;;;;3.37;3.07;;;;;;;12.71;65.28;96184.63;5028078;28;20219;-68
2023/10/25 05:54:20;;;;;;;3.33;3.03;;;;;;;12.72;65.46;96190.66;5023750;28;20208;-68
2023/10/25 05:56:46;;;;;;;5.30;3.40;;;;;;;12.72;65.61;96180.97;5031492;28;20707;-68
2023/10/25 05:59:12;;;;;;;4.03;3.03;;;;;;;12.69;65.52;96191.88;5024802;28;20308;-68
2023/10/25 06:01:48;;;;;;;3.13;2.60;;;;;;;12.68;65.59;96195.50;5039334;28;20219;-68
2023/10/25 06:04:14;;;;;;;4.70;3.40;;;;;;;12.63;65.80;96192.63;5026966;28;20229;-69
2023/10/25 06:06:44;;;;;;;3.63;3.13;;;;;;;12.62;65.59;96191.00;5036756;28;20418;-69
2023/10/25 06:09:10;;;;;;;3.83;3.53;;;;;;;12.63;65.82;96194.44;5029302;28;20522;-68
2023/10/25 06:11:40;;;;;;;9.97;3.90;;;;;;;12.64;65.80;96194.25;5036378;28;20452;-69
2023/10/25 06:14:06;;;;;;;3.90;3.60;;;;;;;12.60;65.18;96187.75;5026285;28;20492;-68
2023/10/25 06:16:32;;;;;;;8.33;4.10;;;;;;;12.59;65.82;96189.56;5035545;28;20524;-70
2023/10/25 06:18:57;;;;;;;6.20;4.37;;;;;;;12.54;65.75;96178.00;5041610;28;20877;-69
2023/10/25 06:21:23;;;;;;;7.40;4.43;;;;;;;12.60;65.81;96177.25;5035295;28;20190;-68
2023/10/25 06:23:50;;;;;;;7.20;4.90;;;;;;;12.60;66.04;96182.50;5029103;28;20215;-69
2023/10/25 06:26:16;;;;;;;8.87;5.23;;;;;;;12.60;65.81;96166.75;5034221;28;20184;-69
2023/10/25 06:28:41;;;;;;;4.63;4.23;;;;;;;12.63;65.97;96168.97;5043144;28;20479;-68
2023/10/25 06:31:10;;;;;;;4.53;4.13;;;;;;;12.63;65.93;96152.38;5028084;28;20226;-68
2023/10/25 06:33:35;;;;;;;4.90;4.47;;;;;;;12.65;65.95;96151.19;5027837;28;20233;-68
2023/10/25 06:36:01;;;;;;;4.67;4.17;;;;;;;12.64;66.09;96152.19;5036915;28;20931;-69
2023/10/25 06:38:27;;;;;;;6.10;4.60;;;;;;;12.59;66.19;96154.59;5035185;28;20183;-68
2023/10/25 06:40:53;;;;;;;5.07;3.87;;;;;;;12.62;66.42;96163.91;5042286;28;20183;-69
2023/10/25 06:43:18;;;;;;;6.90;4.97;;;;;;;12.65;67.04;96169.59;5025094;28;20648;-67
2023/10/25 06:45:47;;;;;;;8.53;4.60;;;;;;;12.83;66.68;96160.41;5031230;28;20638;-69
2023/10/25 06:48:13;;;;;;;4.90;4.40;;;;;;;13.01;66.88;96158.09;5040094;28;20664;-68
2023/10/25 06:50:38;;;;;;;5.87;4.63;;;;;;;13.11;66.97;96156.94;5037590;28;20418;-69
2023/10/25 06:53:04;;;;;;;4.57;4.17;;;;;;;13.23;67.06;96144.88;5033586;28;20191;-70
2023/10/25 06:55:30;;;;;;;4.43;4.03;;;;;;;13.22;66.38;96143.25;5036464;28;20214;-70
2023/10/25 06:57:55;;;;;;;4.97;4.40;;;;;;;13.29;66.72;96146.72;5043598;28;20728;-69
2023/10/25 07:00:22;;;;;;;10.57;5.30;;;;;;;13.34;66.15;96141.69;5033055;28;20184;-69
2023/10/25 07:02:51;;;;;;;5.70;4.13;;;;;;;13.29;65.52;96144.09;5032768;28;20199;-69
2023/10/25 07:05:23;;;;;;;5.83;4.70;;;;;;;13.31;65.40;96138.63;5026727;28;20464;-69
2023/10/25 07:07:50;;;;;;;5.07;4.57;;;;;;;13.39;65.46;96120.06;5030342;28;20948;-69
2023/10/25 07:10:16;;;;;;;5.90;4.20;;;;;;;13.31;66.09;96121.03;5039795;28;20457;-69
2023/10/25 07:12:42;;;;;;;8.70;5.60;;;;;;;13.38;65.87;96121.06;5034913;28;20507;-69
2023/10/25 07:15:08;;;;;;;5.93;5.10;;;;;;;13.36;66.00;96110.72;5027813;28;20922;-70
2023/10/25 07:17:34;;;;;;;5.70;5.17;;;;;;;13.44;66.07;96096.59;5042279;28;20590;-70
2023/10/25 07:19:59;;;;;;;6.73;4.90;;;;;;;13.54;65.89;96103.34;5035108;28;20426;-70
2023/10/25 07:22:28;;;;;;;6.93;5.10;;;;;;;13.62;65.93;96103.94;5042277;28;20424;-70
2023/10/25 07:24:54;;;;;;;5.13;4.73;;;;;;;13.73;66.03;96112.28;5037187;28;20203;-70
2023/10/25 07:27:19;;;;;;;5.73;5.10;;;;;;;13.80;66.24;96102.56;5048310;28;20418;-68
2023/10/25 07:29:45;;;;;;;5.47;5.00;;;;;;;13.78;65.70;96101.97;5040908;28;20445;-69
2023/10/25 07:32:10;;;;;;;5.33;4.83;;;;;;;13.86;66.16;96099.13;5039919;28;20270;-69
2023/10/25 07:34:37;;;;;;;10.20;4.83;;;;;;;13.97;66.50;96098.56;5040886;28;20611;-69
2023/10/25 07:37:03;;;;;;;5.33;4.83;;;;;;;14.04;66.10;96101.22;5033362;28;20195;-69
2023/10/25 07:39:29;;;;;;;8.30;5.13;;;;;;;14.19;66.12;96093.09;5046302;28;20496;-69
2023/10/25 07:41:54;;;;;;;8.67;4.93;;;;;;;14.33;66.15;96095.75;5032866;28;20513;-69
2023/10/25 07:44:20;;;;;;;7.00;4.80;;;;;;;14.34;66.04;96094.72;5037841;28;20273;-68
2023/10/25 07:46:45;;;;;;;6.40;5.43;;;;;;;14.41;66.23;96087.63;5031078;28;20183;-69
2023/10/25 07:49:10;;;;;;;5.70;5.10;;;;;;;14.58;66.16;96088.00;5029037;28;20180;-70
2023/10/25 07:51:36;;;;;;;5.20;4.70;;;;;;;14.70;65.87;96096.16;5030578;28;20218;-69
2023/10/25 07:54:02;;;;;;;6.40;4.97;;;;;;;14.75;65.63;96083.13;5029940;28;20215;-70
2023/10/25 07:56:28;;;;;;;6.43;5.13;;;;;;;14.74;65.25;96087.63;5027354;28;20634;-69
2023/10/25 07:58:54;;;;;;;5.60;4.90;;;;;;;14.58;65.66;96073.00;5030621;28;20457;-70
2023/10/25 08:01:19;;;;;;;5.10;4.20;;;;;;;14.63;65.62;96066.28;5040723;28;20442;-69
2023/10/25 08:03:45;;;;;;;4.80;4.33;;;;;;;14.70;65.45;96060.03;5035540;28;20666;-69
2023/10/25 08:06:10;;;;;;;8.90;4.37;;;;;;;14.65;65.58;96059.00;5033235;28;20176;-69
2023/10/25 08:08:36;;;;;;;4.20;3.80;;;;;;;14.75;65.59;96048.84;5030706;28;20212;-70
2023/10/25 08:11:03;;;;;;;5.43;3.83;;;;;;;14.86;65.51;96050.88;5033804;28;20184;-70
2023/10/25 08:13:33;;;;;;;3.93;3.50;;;;;;;15.13;65.53;96058.66;5032133;28;20182;-69
2023/10/25 08:15:59;;;;;;;6.03;4.20;;;;;;;15.43;65.21;96047.59;5029687;28;20989;-69
2023/10/25 08:18:29;;;;;;;5.33;4.47;;;;;;;15.57;64.20;96044.88;5035287;28;20424;-69
2023/10/25 08:20:55;;;;;;;4.33;3.97;;;;;;;15.71;64.15;96049.06;5037367;28;20415;-69
2023/10/25 08:23:21;;;;;;;4.53;3.53;;;;;;;15.72;63.71;96045.41;5030700;28;20480;-69
2023/10/25 08:25:46;;;;;;;6.30;3.70;;;;;;;15.74;63.24;96048.63;5036071;28;20443;-69
2023/10/25 08:28:12;;;;;;;5.70;3.90;;;;;;;15.76;63.31;96046.56;5029809;28;20187;-69
2023/10/25 08:30:37;;;;;;;4.37;3.40;;;;;;;15.76;63.65;96041.28;5029923;28;20282;-69
2023/10/25 08:33:03;;;;;;;4.40;4.10;;;;;;;15.79;63.44;96034.78;5032001;28;20203;-68
2023/10/25 08:35:28;;;;;;;3.70;3.40;;;;;;;15.78;63.30;96036.59;5043249;28;20714;-69
2023/10/25 08:37:54;;;;;;;9.53;4.40;;;;;;;15.70;63.45;96031.59;5038104;28;20769;-68
2023/10/25 08:40:19;;;;;;;4.00;3.67;;;;;;;15.49;63.12;96025.63;5037262;28;20263;-68
2023/10/25 08:42:45;;;;;;;4.03;3.53;;;;;;;15.40;63.30;96026.88;5031685;28;20578;-69
2023/10/25 08:45:10;;;;;;;8.93;4.57;;;;;;;15.45;63.43;96027.06;5040459;28;20288;-69
2023/10/25 08:47:37;;;;;;;4.20;3.90;;;;;;;15.47;63.64;96032.13;5036762;28;20727;-70
2023/10/25 08:50:04;;;;;;;8.23;3.77;;;;;;;15.46;63.86;96027.88;5031498;28;20190;-70
2023/10/25 08:52:29;;;;;;;4.20;3.80;;;;;;;15.38;63.88;96028.91;5041089;28;20512;-68
2023/10/25 08:54:55;;;;;;;3.87;3.53;;;;;;;15.43;64.08;96023.03;5035109;28;20511;-69
2023/10/25 08:57:20;;;;;;;4.90;3.67;;;;;;;15.43;64.14;96023.03;5039185;28;20535;-69
2023/10/25 08:59:47;;;;;;;5.43;3.17;;;;;;;15.46;64.31;96018.13;4999108;28;20180;-69
2023/10/25 09:02:13;;;;;;;4.57;3.60;;;;;;;15.42;64.31;96019.56;5034207;28;20242;-70
2023/10/25 09:04:59;;;;;;;4.10;3.80;;;;;;;15.41;64.27;96012.66;5034223;28;20534;-71
2023/10/25 09:07:31;;;;;;;4.07;3.67;;;;;;;15.35;64.60;96018.81;5027705;28;20426;-69
2023/10/25 09:09:57;;;;;;;4.00;3.60;;;;;;;15.37;64.51;96014.13;5042733;28;20432;-69
2023/10/25 09:12:23;;;;;;;3.90;3.50;;;;;;;15.35;64.58;96011.69;5029348;28;20986;-69
2023/10/25 09:14:49;;;;;;;7.30;3.70;;;;;;;15.38;64.51;95999.09;5029091;28;20695;-70
2023/10/25 09:17:14;;;;;;;3.97;3.67;;;;;;;15.42;64.31;95998.44;5028816;28;20568;-70
2023/10/25 09:19:43;;;;;;;7.37;3.97;;;;;;;15.38;64.51;95991.97;5042884;28;20179;-70
2023/10/25 09:22:26;;;;;;;3.70;3.40;;;;;;;15.41;64.92;95991.53;5035053;28;20194;-70
2023/10/25 09:24:58;;;;;;;4.33;3.20;;;;;;;15.47;64.71;96000.44;5031999;28;21025;-69
2023/10/25 09:27:23;;;;;;;4.30;3.90;;;;;;;15.48;65.02;95991.50;5024019;28;20429;-68
2023/10/25 09:29:50;;;;;;;4.03;3.63;;;;;;;15.48;65.11;95997.63;5037412;28;20813;-69
2023/10/25 09:32:17;;;;;;;3.60;3.30;;;;;;;15.43;65.37;95989.50;5029525;28;20624;-69
2023/10/25 09:34:43;;;;;;;4.10;3.70;;;;;;;15.34;65.61;95980.22;5028754;28;20496;-69
2023/10/25 09:37:08;;;;;;;3.70;3.40;;;;;;;15.46;65.40;95983.81;5034138;28;20426;-69
2023/10/25 09:39:37;;;;;;;3.77;3.50;;;;;;;15.48;65.68;95970.38;5020665;28;20411;-69
2023/10/25 09:42:05;;;;;;;4.67;4.03;;;;;;;15.45;65.92;95966.34;5030372;28;20168;-69
2023/10/25 09:44:37;;;;;;;4.10;3.70;;;;;;;15.53;65.82;95962.66;5036223;28;20450;-69
2023/10/25 09:47:04;;;;;;;4.30;3.60;;;;;;;15.55;66.00;95965.06;5036305;28;20826;-69
2023/10/25 09:49:30;;;;;;;3.83;3.43;;;;;;;15.49;66.39;95967.56;5031057;28;20444;-69
2023/10/25 09:52:05;;;;;;;4.00;3.60;;;;;;;15.60;66.36;95954.69;5038055;28;20981;-70
2023/10/25 09:54:35;;;;;;;3.90;3.60;;;;;;;15.61;66.04;95962.38;5025710;28;20446;-69
2023/10/25 09:57:02;;;;;;;3.63;3.33;;;;;;;15.75;65.75;95959.63;5034328;28;20438;-69
2023/10/25 09:59:31;;;;;;;3.03;2.83;;;;;;;15.93;65.70;95950.97;5040290;28;20421;-68
2023/10/25 10:01:57;;;;;;;3.20;3.00;;;;;;;15.93;65.26;95950.97;5037821;28;20472;-68
2023/10/25 10:04:39;;;;;;;4.47;2.90;;;;;;;16.09;65.11;95942.50;5031753;28;20442;-69
2023/10/25 10:07:36;;;;;;;3.40;3.07;;;;;;;16.28;64.46;95938.03;5029378;28;20411;-69
2023/10/25 10:10:26;;;;;;;3.30;3.00;;;;;;;16.27;64.39;95935.59;5026867;28;20472;-70
2023/10/25 10:12:52;;;;;;;2.63;2.43;;;;;;;16.30;64.20;95935.16;5031143;28;20454;-69
2023/10/25 10:15:19;;;;;;;3.00;2.37;;;;;;;16.45;63.94;95929.50;5035734;28;20895;-69
2023/10/25 10:17:45;;;;;;;3.50;2.60;;;;;;;16.49;63.51;95912.19;5037212;28;20190;-70
2023/10/25 10:20:28;;;;;;;4.50;2.50;;;;;;;16.43;62.85;95913.09;5041631;28;20521;-68
2023/10/25 10:23:07;;;;;;;3.00;2.13;;;;;;;16.49;63.02;95911.41;5031173;28;20191;-69
2023/10/25 10:25:52;;;;;;;2.50;2.30;;;;;;;16.47;63.10;95905.50;5038621;28;20445;-69
2023/10/25 10:28:42;;;;;;;4.53;2.00;;;;;;;16.46;63.17;95898.59;5032865;28;20553;-69
2023/10/25 10:31:12;;;;;;;1.90;1.80;;;;;;;16.51;63.17;95898.72;5037887;28;20538;-70
2023/10/25 10:33:45;;;;;;;1.90;1.80;;;;;;;16.50;62.91;95887.38;5039010;28;20506;-69
2023/10/25 10:36:11;;;;;;;2.60;2.17;;;;;;;16.61;62.89;95882.34;5032670;28;20457;-69
2023/10/25 10:39:17;;;;;;;3.90;1.97;;;;;;;16.61;62.53;95867.31;5037806;28;20841;-68
2023/10/25 10:41:44;;;;;;;2.77;1.80;;;;;;;16.67;62.17;95855.81;5026379;28;20175;-69
2023/10/25 10:44:13;;;;;;;3.50;2.20;;;;;;;16.59;62.43;95853.50;5047019;28;20426;-69
2023/10/25 10:46:51;;;;;;;5.87;2.00;;;;;;;16.78;62.23;95850.78;5031994;28;20942;-70
2023/10/25 10:49:19;;;;;;;3.20;1.73;;;;;;;16.79;61.68;95841.81;5030078;28;21199;-68
2023/10/25 10:51:45;;;;;;;3.40;1.90;;;;;;;16.80;61.96;95840.78;5039957;28;20422;-69
2023/10/25 10:54:10;;;;;;;2.17;1.90;;;;;;;16.93;61.71;95845.91;5039773;28;20441;-69
2023/10/25 10:56:36;;;;;;;6.70;1.97;;;;;;;16.95;61.41;95829.84;5031657;28;20772;-70
2023/10/25 10:59:01;;;;;;;2.90;2.00;;;;;;;17.03;61.68;95826.88;5039478;28;20652;-69
2023/10/25 11:01:28;;;;;;;1.73;1.63;;;;;;;17.02;61.56;95817.31;5033410;28;20183;-69
2023/10/25 11:03:56;;;;;;;3.73;2.10;;;;;;;17.07;61.51;95813.97;5037762;28;20184;-68
2023/10/25 11:06:24;;;;;;;3.00;1.90;;;;;;;17.07;61.66;95806.88;5040385;28;20453;-70
2023/10/25 11:08:50;;;;;;;7.07;2.00;;;;;;;17.02;61.48;95804.09;5035871;28;20420;-70
2023/10/25 11:11:18;;;;;;;5.10;1.83;;;;;;;17.02;61.53;95793.50;5039275;28;20414;-69
2023/10/25 11:13:44;;;;;;;10.17;2.20;;;;;;;17.07;61.64;95795.47;5036182;28;20496;-69
2023/10/25 11:16:10;;;;;;;8.60;2.30;;;;;;;17.13;61.77;95783.97;5031809;28;20469;-69
2023/10/25 11:18:36;;;;;;;1.77;1.67;;;;;;;17.19;61.36;95775.09;5038676;28;20180;-69
2023/10/25 11:21:01;;;;;;;3.57;2.20;;;;;;;17.31;61.40;95770.63;5031283;28;20425;-69
2023/10/25 11:23:27;;;;;;;1.80;1.50;;;;;;;17.43;61.23;95761.88;5039285;28;20187;-69
2023/10/25 11:25:53;;;;;;;3.57;1.67;;;;;;;17.71;60.98;95755.84;5039764;28;20203;-69
2023/10/25 11:28:19;;;;;;;1.77;1.40;;;;;;;17.75;59.91;95754.34;5030734;28;20547;-70
2023/10/25 11:30:45;;;;;;;4.57;1.70;;;;;;;17.83;59.58;95745.25;5030803;28;20188;-70
2023/10/25 11:33:11;;;;;;;2.43;1.70;;;;;;;17.88;59.27;95740.06;5031684;28;20522;-69